Buffalo Springs, North Dakota
Current Conditions -  °F | °C
As of 9:53 PM on Saturday 22 Nov 2014 (Local Time) from KHEI Reporting Station
Overcast Overcast  
Wind Chill: 31°   Ceiling: 5500
Heat Index: 38°   Visibility: 10mi
Dew Point: 32°   Wind: 9mph
Humidity: 79%   Direction: 270°W
Pressure: 29.41"   Gusts: NA
Location:  46.1126°N, 103.431°W
Report Text: KHEI 230453Z AUTO 27008KT 10SM BKN055 OVC070 03/00 A2941 RMK AO2 SLP977 T00330000
Loading
Personal Weather Stations






























Interactive Weather Map New forecast layout! Learn more

10-Day Weather Forecast

Advertisements
Track Severe Weather on mobile